Time;durP1;ratioP1;P1;durP2;ratioP2;P2;SDS_P1;SDS_P2;PMS_P1;PMS_P2;Temp;Humidity;BMP_temperature;BMP_pressure;BME280_temperature;BME280_humidity;BME280_pressure;Samples;Min_cycle;Max_cycle;Signal;HPM_P1;HPM_P2
2021/04/21 00:01:49;;;;;;;;;;;;;;;20.52;32.11;99817.91;4418497;32;19954;-54
2021/04/21 00:04:15;;;;;;;;;;;;;;;20.48;32.15;99815.25;4407034;32;20011;-55
2021/04/21 00:06:41;;;;;;;;;;;;;;;20.46;32.25;99810.84;4403725;32;20298;-53
2021/04/21 00:09:07;;;;;;;;;;;;;;;20.46;32.06;99810.84;4417979;32;20347;-54
2021/04/21 00:11:33;;;;;;;;;;;;;;;20.47;31.91;99813.50;4418418;32;19974;-54
2021/04/21 00:13:59;;;;;;;;;;;;;;;20.45;32.05;99814.38;4417901;32;19954;-56
2021/04/21 00:16:25;;;;;;;;;;;;;;;20.45;31.92;99815.25;4417256;32;19958;-56
2021/04/21 00:18:51;;;;;;;;;;;;;;;20.45;31.88;99815.25;4417442;32;19966;-55
2021/04/21 00:21:17;;;;;;;;;;;;;;;20.45;31.88;99814.38;4416390;32;19950;-56
2021/04/21 00:23:43;;;;;;;;;;;;;;;20.47;31.85;99812.59;4417952;32;19958;-55
2021/04/21 00:26:08;;;;;;;;;;;;;;;20.48;31.74;99803.78;4416609;32;20659;-56
2021/04/21 00:28:34;;;;;;;;;;;;;;;20.48;31.82;99804.69;4407547;32;20000;-53
2021/04/21 00:31:00;;;;;;;;;;;;;;;20.48;31.78;99804.69;4415020;32;19972;-57
2021/04/21 00:33:26;;;;;;;;;;;;;;;20.45;31.69;99804.69;4417435;32;19969;-56
2021/04/21 00:35:52;;;;;;;;;;;;;;;20.43;32.00;99803.75;4417662;32;20013;-55
2021/04/21 00:38:18;;;;;;;;;;;;;;;20.43;31.88;99801.13;4408752;32;19958;-56
2021/04/21 00:40:44;;;;;;;;;;;;;;;20.46;31.63;99801.16;4417573;32;20008;-56
2021/04/21 00:43:10;;;;;;;;;;;;;;;20.44;31.80;99796.72;4416900;32;19972;-55
2021/04/21 00:45:36;;;;;;;;;;;;;;;20.43;31.61;99801.13;4416062;32;20323;-56
2021/04/21 00:48:02;;;;;;;;;;;;;;;20.45;31.60;99802.03;4418110;32;19958;-55
2021/04/21 00:50:28;;;;;;;;;;;;;;;20.45;31.55;99794.09;4418330;32;20507;-52
2021/04/21 00:52:54;;;;;;;;;;;;;;;20.51;31.37;99803.81;4416596;32;19982;-57
2021/04/21 00:55:20;;;;;;;;;;;;;;;20.49;31.39;99806.44;4418195;32;19966;-56
2021/04/21 00:57:45;;;;;;;;;;;;;;;20.48;31.45;99794.09;4416909;32;20034;-56
2021/04/21 01:00:11;;;;;;;;;;;;;;;20.50;31.42;99802.91;4417703;32;19950;-57
2021/04/21 01:02:37;;;;;;;;;;;;;;;20.48;31.38;99795.84;4416994;32;19946;-53
2021/04/21 01:05:03;;;;;;;;;;;;;;;20.48;31.44;99802.03;4417222;32;19966;-56
2021/04/21 01:07:29;;;;;;;;;;;;;;;20.43;31.45;99789.69;4415551;32;19964;-56
2021/04/21 01:09:55;;;;;;;;;;;;;;;20.44;31.47;99796.72;4416668;32;19964;-56
2021/04/21 01:12:21;;;;;;;;;;;;;;;20.44;31.43;99791.44;4416262;32;19938;-56
2021/04/21 01:14:47;;;;;;;;;;;;;;;20.44;31.39;99787.06;4417262;32;19954;-50
2021/04/21 01:17:13;;;;;;;;;;;;;;;20.45;31.45;99788.81;4418021;32;20054;-55
2021/04/21 01:19:39;;;;;;;;;;;;;;;20.44;31.41;99789.69;4406031;32;19957;-54
2021/04/21 01:22:04;;;;;;;;;;;;;;;20.41;31.42;99794.94;4401123;32;20271;-56
2021/04/21 01:24:30;;;;;;;;;;;;;;;20.39;31.57;99793.19;4412939;32;19950;-56
2021/04/21 01:26:56;;;;;;;;;;;;;;;20.38;31.46;99794.09;4416818;32;19946;-57
2021/04/21 01:29:22;;;;;;;;;;;;;;;20.39;31.48;99793.19;4418241;32;19962;-55
2021/04/21 01:31:48;;;;;;;;;;;;;;;20.42;31.54;99790.56;4418520;32;19981;-54
2021/04/21 01:34:14;;;;;;;;;;;;;;;20.41;31.49;99786.16;4417909;32;20029;-53
2021/04/21 01:36:40;;;;;;;;;;;;;;;20.36;31.69;99778.19;4417975;32;19954;-56
2021/04/21 01:39:06;;;;;;;;;;;;;;;20.37;31.54;99785.25;4418041;32;20308;-56
2021/04/21 01:41:31;;;;;;;;;;;;;;;20.35;31.60;99779.94;4418734;32;19950;-55
2021/04/21 01:43:57;;;;;;;;;;;;;;;20.38;31.56;99776.44;4410942;32;20335;-54
2021/04/21 01:46:23;;;;;;;;;;;;;;;20.38;31.52;99784.38;4401810;32;20046;-53
2021/04/21 01:48:49;;;;;;;;;;;;;;;20.38;31.65;99786.16;4411632;32;20336;-54
2021/04/21 01:51:15;;;;;;;;;;;;;;;20.36;31.58;99781.72;4416489;32;19984;-56
2021/04/21 01:53:41;;;;;;;;;;;;;;;20.31;31.60;99783.47;4415497;32;20374;-52
2021/04/21 01:56:07;;;;;;;;;;;;;;;20.33;31.46;99780.84;4417544;32;19953;-55
2021/04/21 01:58:33;;;;;;;;;;;;;;;20.36;31.48;99780.84;4414982;32;19958;-56
2021/04/21 02:00:59;;;;;;;;;;;;;;;20.33;31.60;99780.84;4415145;32;19973;-55
2021/04/21 02:03:24;;;;;;;;;;;;;;;20.32;31.62;99781.72;4418173;32;19961;-54
2021/04/21 02:05:50;;;;;;;;;;;;;;;20.32;31.67;99787.87;4414882;32;20298;-56
2021/04/21 02:08:16;;;;;;;;;;;;;;;20.30;31.61;99780.81;4414940;32;19934;-56
2021/04/21 02:10:42;;;;;;;;;;;;;;;20.31;31.61;99790.50;4416006;32;19954;-55
2021/04/21 02:13:08;;;;;;;;;;;;;;;20.32;31.59;99782.59;4416014;32;19950;-55
2021/04/21 02:15:34;;;;;;;;;;;;;;;20.32;31.54;99787.00;4415126;32;20041;-56
2021/04/21 02:18:00;;;;;;;;;;;;;;;20.30;31.61;99788.75;4415983;32;19958;-56
2021/04/21 02:20:26;;;;;;;;;;;;;;;20.33;31.70;99788.78;4415565;32;19974;-56
2021/04/21 02:22:52;;;;;;;;;;;;;;;20.31;31.58;99791.41;4416256;32;20313;-53
2021/04/21 02:25:18;;;;;;;;;;;;;;;20.34;31.58;99795.81;4408906;32;19966;-56
2021/04/21 02:27:44;;;;;;;;;;;;;;;20.31;31.63;99795.78;4400241;32;19994;-55
2021/04/21 02:30:10;;;;;;;;;;;;;;;20.28;31.73;99791.41;4407761;32;20319;-56
2021/04/21 02:32:36;;;;;;;;;;;;;;;20.29;31.60;99797.56;4416785;32;19951;-56
2021/04/21 02:35:02;;;;;;;;;;;;;;;20.30;31.60;99796.69;4417130;32;19981;-55
2021/04/21 02:37:28;;;;;;;;;;;;;;;20.25;31.59;99798.44;4416668;32;19954;-53
2021/04/21 02:39:54;;;;;;;;;;;;;;;20.29;31.79;99797.56;4410866;32;21078;-51
2021/04/21 02:42:19;;;;;;;;;;;;;;;20.26;31.52;99792.25;4402327;32;19950;-56
2021/04/21 02:44:45;;;;;;;;;;;;;;;20.26;31.70;99792.25;4405452;32;19956;-56
2021/04/21 02:47:11;;;;;;;;;;;;;;;20.22;31.62;99792.25;4415286;32;20003;-56
2021/04/21 02:49:37;;;;;;;;;;;;;;;20.29;31.69;99802.84;4416453;32;19954;-56
2021/04/21 02:52:03;;;;;;;;;;;;;;;20.28;31.64;99801.09;4416093;32;19958;-52
2021/04/21 02:54:29;;;;;;;;;;;;;;;20.27;31.60;99797.56;4418169;32;19982;-55
2021/04/21 02:56:55;;;;;;;;;;;;;;;20.26;31.74;99795.81;4420363;32;20048;-53
2021/04/21 02:59:21;;;;;;;;;;;;;;;20.21;31.80;99794.87;4421073;32;19934;-56
2021/04/21 03:01:47;;;;;;;;;;;;;;;20.19;31.79;99794.91;4418666;32;20267;-56
2021/04/21 03:04:13;;;;;;;;;;;;;;;20.25;31.71;99801.06;4418399;32;19954;-57
2021/04/21 03:06:39;;;;;;;;;;;;;;;20.19;31.76;99801.94;4418696;32;19946;-54
2021/04/21 03:09:05;;;;;;;;;;;;;;;20.20;31.67;99801.94;4419442;32;19950;-56
2021/04/21 03:11:31;;;;;;;;;;;;;;;20.19;31.84;99805.47;4420450;32;19957;-56
2021/04/21 03:13:57;;;;;;;;;;;;;;;20.23;31.67;99801.06;4418561;32;19949;-56
2021/04/21 03:16:23;;;;;;;;;;;;;;;20.17;31.89;99804.56;4418933;32;20671;-54
2021/04/21 03:18:48;;;;;;;;;;;;;;;20.11;31.89;99809.84;4419323;32;19938;-54
2021/04/21 03:21:14;;;;;;;;;;;;;;;20.16;31.82;99807.22;4419547;32;19985;-52
2021/04/21 03:23:40;;;;;;;;;;;;;;;20.13;31.87;99802.78;4419825;32;19969;-54
2021/04/21 03:26:06;;;;;;;;;;;;;;;20.18;31.60;99795.75;4410772;32;20365;-55
2021/04/21 03:28:32;;;;;;;;;;;;;;;20.14;31.80;99796.63;4403389;32;19957;-56
2021/04/21 03:30:58;;;;;;;;;;;;;;;20.11;31.77;99791.34;4409548;32;20018;-55
2021/04/21 03:33:24;;;;;;;;;;;;;;;20.13;31.87;99797.50;4418764;32;19984;-54
2021/04/21 03:35:50;;;;;;;;;;;;;;;20.13;31.80;99792.22;4418304;32;19964;-55
2021/04/21 03:38:16;;;;;;;;;;;;;;;20.19;31.91;99797.53;4417742;32;19950;-56
2021/04/21 03:40:42;;;;;;;;;;;;;;;20.17;31.87;99801.06;4415799;32;20009;-56
2021/04/21 03:43:09;;;;;;;;;;;;;;;20.21;31.71;99801.06;4404498;32;20429;-56
2021/04/21 03:45:35;;;;;;;;;;;;;;;20.17;31.89;99798.41;4406128;32;19946;-56
2021/04/21 03:48:01;;;;;;;;;;;;;;;20.11;31.78;99799.25;4416895;32;19950;-57
2021/04/21 03:50:27;;;;;;;;;;;;;;;20.10;31.94;99802.78;4417085;32;19976;-56
2021/04/21 03:52:53;;;;;;;;;;;;;;;20.13;31.81;99799.28;4417891;32;20334;-56
2021/04/21 03:55:19;;;;;;;;;;;;;;;20.10;31.81;99807.19;4419141;32;19987;-56
2021/04/21 03:57:44;;;;;;;;;;;;;;;20.06;31.89;99806.28;4405197;32;19953;-55
2021/04/21 04:00:10;;;;;;;;;;;;;;;20.12;31.95;99795.75;4403074;32;20625;-53
2021/04/21 04:02:36;;;;;;;;;;;;;;;20.04;31.84;99797.47;4416642;32;19942;-55
2021/04/21 04:05:02;;;;;;;;;;;;;;;20.09;31.75;99795.75;4419507;32;19946;-55
2021/04/21 04:07:28;;;;;;;;;;;;;;;20.12;31.82;99793.09;4416906;32;23273;-56
2021/04/21 04:09:54;;;;;;;;;;;;;;;20.03;31.97;99793.94;4418638;32;19954;-55
2021/04/21 04:12:20;;;;;;;;;;;;;;;20.05;31.89;99799.22;4409330;32;20279;-56
2021/04/21 04:14:46;;;;;;;;;;;;;;;20.02;31.96;99801.84;4404126;32;20020;-56
2021/04/21 04:17:12;;;;;;;;;;;;;;;20.04;31.88;99802.75;4412070;32;19987;-56
2021/04/21 04:19:38;;;;;;;;;;;;;;;20.09;31.85;99795.75;4418940;32;19954;-55
2021/04/21 04:22:04;;;;;;;;;;;;;;;20.06;31.91;99806.28;4418152;32;19954;-56
2021/04/21 04:24:29;;;;;;;;;;;;;;;20.07;31.81;99797.50;4419510;32;20303;-56
2021/04/21 04:26:55;;;;;;;;;;;;;;;20.00;31.85;99803.63;4411545;32;19999;-54
2021/04/21 04:29:21;;;;;;;;;;;;;;;20.02;31.93;99805.41;4403980;32;20283;-55
2021/04/21 04:31:47;;;;;;;;;;;;;;;20.03;31.94;99806.25;4407188;32;19949;-56
2021/04/21 04:34:13;;;;;;;;;;;;;;;20.05;31.84;99815.09;4418914;32;19954;-55
2021/04/21 04:36:39;;;;;;;;;;;;;;;20.03;32.02;99812.44;4419482;32;19962;-51
2021/04/21 04:39:05;;;;;;;;;;;;;;;19.99;32.20;99810.66;4418115;32;19978;-56
2021/04/21 04:41:31;;;;;;;;;;;;;;;19.99;32.11;99813.28;4418995;32;20341;-55
2021/04/21 04:43:57;;;;;;;;;;;;;;;19.98;32.09;99814.16;4418982;32;19950;-55
2021/04/21 04:46:22;;;;;;;;;;;;;;;20.01;31.85;99810.66;4418753;32;19983;-55
2021/04/21 04:48:48;;;;;;;;;;;;;;;19.98;32.10;99808.00;4418673;32;19969;-56
2021/04/21 04:51:14;;;;;;;;;;;;;;;19.99;31.87;99815.94;4418128;32;20012;-54
2021/04/21 04:53:40;;;;;;;;;;;;;;;19.91;32.05;99815.88;4418101;32;19993;-54
2021/04/21 04:56:06;;;;;;;;;;;;;;;19.93;32.05;99818.56;4418953;32;19957;-55
2021/04/21 04:58:32;;;;;;;;;;;;;;;19.96;31.98;99822.97;4418609;32;19950;-56
2021/04/21 05:00:58;;;;;;;;;;;;;;;19.95;32.09;99814.16;4417570;32;19974;-56
2021/04/21 05:03:24;;;;;;;;;;;;;;;19.97;31.86;99824.75;4417962;32;19954;-55
2021/04/21 05:05:50;;;;;;;;;;;;;;;19.97;32.02;99827.41;4418773;32;19946;-56
2021/04/21 05:08:16;;;;;;;;;;;;;;;19.88;32.32;99831.72;4417024;32;19961;-56
2021/04/21 05:10:41;;;;;;;;;;;;;;;19.93;32.00;99837.91;4418507;32;20380;-57
2021/04/21 05:13:07;;;;;;;;;;;;;;;19.99;31.96;99830.94;4411065;32;19987;-56
2021/04/21 05:15:33;;;;;;;;;;;;;;;19.97;31.91;99840.59;4416950;32;19968;-56
2021/04/21 05:17:59;;;;;;;;;;;;;;;20.00;31.99;99837.97;4417217;32;20095;-56
2021/04/21 05:20:25;;;;;;;;;;;;;;;19.99;31.93;99838.84;4416657;32;19966;-56
2021/04/21 05:22:51;;;;;;;;;;;;;;;19.92;32.02;99846.72;4417895;32;19968;-56
2021/04/21 05:25:17;;;;;;;;;;;;;;;19.94;32.10;99847.66;4416953;32;19979;-55
2021/04/21 05:27:43;;;;;;;;;;;;;;;19.91;32.10;99852.00;4416010;32;20357;-56
2021/04/21 05:30:09;;;;;;;;;;;;;;;19.99;31.99;99852.06;4417791;32;19954;-55
2021/04/21 05:32:35;;;;;;;;;;;;;;;19.97;32.14;99851.19;4414138;32;19981;-53
2021/04/21 05:35:01;;;;;;;;;;;;;;;19.90;32.15;99853.75;4417344;32;19947;-57
2021/04/21 05:37:27;;;;;;;;;;;;;;;19.94;32.20;99852.03;4414815;32;19954;-55
2021/04/21 05:39:53;;;;;;;;;;;;;;;19.95;32.14;99861.72;4417477;32;19959;-54
2021/04/21 05:42:19;;;;;;;;;;;;;;;19.84;32.61;99863.37;4417386;32;19956;-57
2021/04/21 05:44:54;;;;;;;;;;;;;;;19.88;32.25;99859.88;4418290;32;20026;-57
2021/04/21 05:47:20;;;;;;;;;;;;;;;19.82;32.31;99865.13;4417100;32;19983;-55
2021/04/21 05:49:46;;;;;;;;;;;;;;;19.87;32.46;99864.28;4417501;32;19946;-57
2021/04/21 05:52:12;;;;;;;;;;;;;;;19.94;32.34;99857.31;4416416;32;20425;-54
2021/04/21 05:54:37;;;;;;;;;;;;;;;19.93;32.21;99859.06;4417794;32;19951;-56
2021/04/21 05:57:03;;;;;;;;;;;;;;;19.96;32.23;99862.63;4415997;32;19958;-55
2021/04/21 05:59:29;;;;;;;;;;;;;;;19.91;32.26;99868.72;4416600;32;19958;-57
2021/04/21 06:01:55;;;;;;;;;;;;;;;19.96;32.34;99863.50;4415839;32;19965;-56
2021/04/21 06:04:23;;;;;;;;;;;;;;;19.95;32.17;99861.72;4415666;32;20339;-57
2021/04/21 06:06:49;;;;;;;;;;;;;;;19.97;32.21;99869.69;4416770;32;19950;-55
2021/04/21 06:09:15;;;;;;;;;;;;;;;19.97;32.23;99856.47;4416498;32;19993;-55
2021/04/21 06:11:41;;;;;;;;;;;;;;;19.97;32.16;99859.09;4417113;32;19984;-55
2021/04/21 06:14:07;;;;;;;;;;;;;;;20.01;32.22;99853.84;4411147;32;20264;-53
2021/04/21 06:16:33;;;;;;;;;;;;;;;20.00;32.15;99860.00;4416398;32;19957;-54
2021/04/21 06:18:59;;;;;;;;;;;;;;;20.05;32.20;99865.31;4413516;32;19968;-55
2021/04/21 06:21:25;;;;;;;;;;;;;;;20.02;32.14;99873.22;4414465;32;20295;-55
2021/04/21 06:23:51;;;;;;;;;;;;;;;20.04;32.14;99872.37;4408649;32;19959;-56
2021/04/21 06:26:16;;;;;;;;;;;;;;;20.07;32.08;99874.16;4400162;32;19954;-56
2021/04/21 06:28:42;;;;;;;;;;;;;;;20.05;32.15;99868.84;4403693;32;19954;-56
2021/04/21 06:31:09;;;;;;;;;;;;;;;20.04;32.24;99866.19;4415699;32;19954;-56
2021/04/21 06:33:35;;;;;;;;;;;;;;;20.07;32.25;99861.78;4416011;32;19985;-54
2021/04/21 06:36:01;;;;;;;;;;;;;;;20.10;32.12;99855.66;4415397;32;20323;-54
2021/04/21 06:38:27;;;;;;;;;;;;;;;20.05;32.21;99860.00;4415116;32;19955;-57
2021/04/21 06:40:54;;;;;;;;;;;;;;;20.09;32.15;99859.19;4415984;32;19950;-54
2021/04/21 06:43:20;;;;;;;;;;;;;;;20.11;32.11;99867.09;4415374;32;20009;-57
2021/04/21 06:45:45;;;;;;;;;;;;;;;20.17;32.09;99877.72;4415770;32;20588;-56
2021/04/21 06:48:12;;;;;;;;;;;;;;;20.16;32.16;99865.38;4415249;32;20453;-57
2021/04/21 06:50:38;;;;;;;;;;;;;;;20.13;32.22;99860.94;4415171;32;19957;-56
2021/04/21 06:53:04;;;;;;;;;;;;;;;20.15;32.21;99863.63;4415882;32;20335;-56
2021/04/21 06:55:30;;;;;;;;;;;;;;;20.17;32.18;99867.16;4405940;32;19946;-56
2021/04/21 06:57:56;;;;;;;;;;;;;;;20.18;32.19;99869.78;4409061;32;20009;-54
2021/04/21 07:00:22;;;;;;;;;;;;;;;20.15;32.19;99869.75;4391814;32;20021;-55
2021/04/21 07:02:48;;;;;;;;;;;;;;;20.13;32.35;99871.53;4393748;32;19955;-56
2021/04/21 07:05:14;;;;;;;;;;;;;;;20.16;32.28;99871.53;4409353;32;20096;-54
2021/04/21 07:07:40;;;;;;;;;;;;;;;20.02;32.63;99876.75;4415528;32;20389;-57
2021/04/21 07:10:06;;;;;;;;;;;;;;;19.99;32.71;99873.22;4414644;32;19983;-56
2021/04/21 07:12:32;;;;;;;;;;;;;;;20.06;32.76;99875.88;4414870;32;19958;-57
2021/04/21 07:14:58;;;;;;;;;;;;;;;20.03;32.67;99869.69;4415176;32;19950;-52
2021/04/21 07:17:23;;;;;;;;;;;;;;;20.16;32.51;99874.19;4412049;32;20042;-54
2021/04/21 07:19:49;;;;;;;;;;;;;;;19.98;33.11;99882.00;4395481;32;20362;-57
2021/04/21 07:22:16;;;;;;;;;;;;;;;20.03;32.71;99874.97;4386141;32;19982;-55
2021/04/21 07:24:42;;;;;;;;;;;;;;;20.10;32.64;99876.81;4395408;32;19969;-55
2021/04/21 07:27:08;;;;;;;;;;;;;;;20.09;32.74;99877.69;4389467;32;20334;-58
2021/04/21 07:29:34;;;;;;;;;;;;;;;20.17;32.63;99885.66;4410180;32;19955;-58
2021/04/21 07:32:00;;;;;;;;;;;;;;;19.50;34.21;99879.87;4411459;32;20420;-58
2021/04/21 07:34:25;;;;;;;;;;;;;;;19.26;34.91;99881.44;4414581;32;20244;-58
2021/04/21 07:36:51;;;;;;;;;;;;;;;19.27;35.06;99882.34;4414629;32;19950;-50
2021/04/21 07:39:17;;;;;;;;;;;;;;;19.27;35.48;99887.63;4409836;32;19978;-55
2021/04/21 07:41:43;;;;;;;;;;;;;;;19.40;35.00;99878.03;4415573;32;19972;-56
2021/04/21 07:44:09;;;;;;;;;;;;;;;19.50;34.41;99879.87;4417198;32;19975;-56
2021/04/21 07:46:35;;;;;;;;;;;;;;;19.70;33.85;99881.81;4417834;32;19954;-57
2021/04/21 07:49:01;;;;;;;;;;;;;;;19.84;33.54;99885.41;4417093;32;20014;-55
2021/04/21 07:51:27;;;;;;;;;;;;;;;19.78;34.10;99880.09;4417325;32;19954;-57
2021/04/21 07:53:53;;;;;;;;;;;;;;;19.79;33.87;99888.03;4417348;32;19969;-56
2021/04/21 07:56:20;;;;;;;;;;;;;;;19.93;33.40;99887.28;4417068;32;19953;-57
2021/04/21 07:58:46;;;;;;;;;;;;;;;20.04;33.22;99888.22;4417829;32;20040;-55
2021/04/21 08:01:12;;;;;;;;;;;;;;;20.12;33.17;99880.34;4416114;32;19950;-56
2021/04/21 08:03:38;;;;;;;;;;;;;;;20.15;33.03;99888.28;4418156;32;19942;-57
2021/04/21 08:06:04;;;;;;;;;;;;;;;20.24;32.94;99890.06;4417191;32;19958;-53
2021/04/21 08:08:29;;;;;;;;;;;;;;;20.11;33.12;99891.78;4413262;32;19958;-56
2021/04/21 08:10:55;;;;;;;;;;;;;;;20.13;33.38;99890.03;4402150;32;19966;-55
2021/04/21 08:13:21;;;;;;;;;;;;;;;19.69;34.23;99888.84;4417513;32;19973;-57
2021/04/21 08:15:47;;;;;;;;;;;;;;;20.02;33.51;99899.66;4417152;32;19984;-56
2021/04/21 08:18:13;;;;;;;;;;;;;;;20.07;33.45;99895.28;4417192;32;20003;-54
2021/04/21 08:20:39;;;;;;;;;;;;;;;20.12;33.37;99890.00;4416901;32;19953;-55
2021/04/21 08:23:05;;;;;;;;;;;;;;;20.13;33.61;99892.66;4416217;32;20006;-55
2021/04/21 08:25:31;;;;;;;;;;;;;;;19.92;33.97;99894.28;4417128;32;20009;-56
2021/04/21 08:27:57;;;;;;;;;;;;;;;20.01;33.94;99897.88;4417285;32;20390;-57
2021/04/21 08:30:22;;;;;;;;;;;;;;;20.09;33.85;99896.19;4416205;32;19955;-58
2021/04/21 08:32:48;;;;;;;;;;;;;;;20.01;34.11;99895.25;4418028;32;20301;-58
2021/04/21 08:35:14;;;;;;;;;;;;;;;20.14;33.73;99894.44;4415535;32;20012;-52
2021/04/21 08:37:40;;;;;;;;;;;;;;;19.97;34.18;99896.09;4412507;32;19973;-52
2021/04/21 08:40:06;;;;;;;;;;;;;;;20.04;34.09;99897.91;4409233;32;19992;-56
2021/04/21 08:42:32;;;;;;;;;;;;;;;20.08;34.11;99899.69;4398116;32;19970;-56
2021/04/21 08:44:58;;;;;;;;;;;;;;;20.03;34.08;99897.03;4394055;32;19973;-56
2021/04/21 08:47:24;;;;;;;;;;;;;;;20.03;34.13;99890.84;4400997;32;20320;-57
2021/04/21 08:49:50;;;;;;;;;;;;;;;20.22;33.66;99892.72;4406388;32;19977;-55
2021/04/21 08:52:16;;;;;;;;;;;;;;;20.31;33.47;99888.34;4415621;32;20297;-55
2021/04/21 08:54:42;;;;;;;;;;;;;;;20.36;33.43;99894.56;4417012;32;19982;-56
2021/04/21 08:57:07;;;;;;;;;;;;;;;20.36;33.45;99889.25;4415573;32;19954;-55
2021/04/21 08:59:33;;;;;;;;;;;;;;;20.41;33.33;99894.59;4415561;32;19954;-56
2021/04/21 09:01:59;;;;;;;;;;;;;;;20.40;33.37;99896.31;4416048;32;19950;-53
2021/04/21 09:04:25;;;;;;;;;;;;;;;20.39;33.35;99894.56;4416558;32;20677;-56
2021/04/21 09:06:51;;;;;;;;;;;;;;;20.41;33.42;99897.22;4416560;32;19954;-55
2021/04/21 09:09:17;;;;;;;;;;;;;;;20.38;33.49;99895.44;4416631;32;19950;-56
2021/04/21 09:11:43;;;;;;;;;;;;;;;20.36;33.51;99903.34;4415044;32;19946;-59
2021/04/21 09:14:09;;;;;;;;;;;;;;;20.30;34.10;99900.69;4415611;32;19977;-58
2021/04/21 09:16:35;;;;;;;;;;;;;;;20.14;34.64;99899.72;4412873;32;19958;-57
2021/04/21 09:19:01;;;;;;;;;;;;;;;20.10;34.74;99894.41;4415805;32;19970;-59
2021/04/21 09:21:31;;;;;;;;;;;;;;;18.99;36.75;99895.22;4415971;32;19959;-58
2021/04/21 09:23:57;;;;;;;;;;;;;;;19.07;37.04;99897.09;4416060;32;19969;-59
2021/04/21 09:26:23;;;;;;;;;;;;;;;19.17;36.60;99891.91;4413452;32;20065;-59
2021/04/21 09:28:49;;;;;;;;;;;;;;;19.47;36.24;99893.06;4414094;32;19965;-59
2021/04/21 09:31:15;;;;;;;;;;;;;;;19.73;35.70;99892.38;4414812;32;20024;-59
2021/04/21 09:33:41;;;;;;;;;;;;;;;19.71;35.98;99894.13;4415167;32;20304;-59
2021/04/21 09:36:07;;;;;;;;;;;;;;;19.74;36.25;99891.50;4414749;32;19954;-58
2021/04/21 09:38:33;;;;;;;;;;;;;;;19.70;35.92;99884.44;4415525;32;19964;-58
2021/04/21 09:41:01;;;;;;;;;;;;;;;19.53;36.33;99887.81;4414454;32;19968;-58
2021/04/21 09:43:27;;;;;;;;;;;;;;;19.58;36.29;99894.03;4416123;32;20010;-59
2021/04/21 09:45:52;;;;;;;;;;;;;;;19.77;35.69;99888.88;4416441;32;19965;-58
2021/04/21 09:48:18;;;;;;;;;;;;;;;19.90;35.45;99890.72;4415027;32;19938;-58
2021/04/21 09:50:44;;;;;;;;;;;;;;;19.60;36.34;99880.84;4415567;32;19961;-59
2021/04/21 09:53:10;;;;;;;;;;;;;;;19.91;35.45;99883.72;4414355;32;20671;-58
2021/04/21 09:55:36;;;;;;;;;;;;;;;19.83;35.70;99878.37;4415394;32;20057;-58
2021/04/21 09:58:02;;;;;;;;;;;;;;;19.97;35.54;99878.47;4413917;32;20255;-59
2021/04/21 10:00:28;;;;;;;;;;;;;;;20.13;35.18;99875.94;4413073;32;20395;-59
2021/04/21 10:02:55;;;;;;;;;;;;;;;20.22;34.75;99875.97;4415472;32;19972;-57
2021/04/21 10:05:21;;;;;;;;;;;;;;;20.14;34.77;99875.94;4414063;32;20413;-59
2021/04/21 10:07:47;;;;;;;;;;;;;;;19.95;35.28;99880.22;4413598;32;19983;-56
2021/04/21 10:10:13;;;;;;;;;;;;;;;19.99;35.16;99874.06;4413934;32;19969;-57
2021/04/21 10:12:39;;;;;;;;;;;;;;;20.19;34.79;99870.66;4414625;32;19942;-57
2021/04/21 10:15:11;;;;;;;;;;;;;;;20.27;34.65;99861.03;4402040;32;20438;-55
2021/04/21 10:17:37;;;;;;;;;;;;;;;20.41;34.36;99862.84;4402988;32;19941;-57
2021/04/21 10:20:03;;;;;;;;;;;;;;;20.47;34.22;99860.22;4415083;32;20007;-56
2021/04/21 10:22:29;;;;;;;;;;;;;;;20.50;34.19;99850.53;4415210;32;20375;-56
2021/04/21 10:24:54;;;;;;;;;;;;;;;20.56;34.13;99864.63;4415786;32;20029;-56
2021/04/21 10:27:20;;;;;;;;;;;;;;;20.60;34.10;99855.84;4413569;32;20033;-54
2021/04/21 10:29:46;;;;;;;;;;;;;;;20.64;34.04;99857.63;4414871;32;19958;-56
2021/04/21 10:32:15;;;;;;;;;;;;;;;20.58;34.20;99860.25;4416355;32;19934;-56
2021/04/21 10:34:40;;;;;;;;;;;;;;;20.66;34.08;99855.84;4417951;32;19954;-56
2021/04/21 10:37:06;;;;;;;;;;;;;;;20.67;34.09;99849.69;4416610;32;19955;-57
2021/04/21 10:39:33;;;;;;;;;;;;;;;20.65;34.10;99854.09;4417758;32;19956;-56
2021/04/21 10:41:59;;;;;;;;;;;;;;;20.69;34.08;99850.59;4417289;32;19950;-55
2021/04/21 10:44:25;;;;;;;;;;;;;;;20.68;34.09;99848.84;4416756;32;19978;-56
2021/04/21 10:46:51;;;;;;;;;;;;;;;20.70;34.08;99849.72;4417160;32;19950;-56
2021/04/21 10:49:17;;;;;;;;;;;;;;;20.71;34.10;99854.13;4416181;32;19941;-56
2021/04/21 10:51:43;;;;;;;;;;;;;;;20.74;34.08;99848.84;4415291;32;19942;-57
2021/04/21 10:54:09;;;;;;;;;;;;;;;20.76;34.06;99856.78;4415585;32;19976;-58
2021/04/21 10:56:35;;;;;;;;;;;;;;;20.74;34.10;99847.94;4415393;32;19938;-57
2021/04/21 10:59:01;;;;;;;;;;;;;;;20.74;34.12;99855.87;4414508;32;20031;-58
2021/04/21 11:01:27;;;;;;;;;;;;;;;20.74;34.13;99851.47;4415475;32;19962;-57
2021/04/21 11:03:53;;;;;;;;;;;;;;;20.73;34.16;99844.44;4416869;32;20011;-56
2021/04/21 11:06:19;;;;;;;;;;;;;;;20.75;34.17;99845.31;4414801;32;19962;-56
2021/04/21 11:08:45;;;;;;;;;;;;;;;20.75;34.21;99844.44;4416666;32;19993;-58
2021/04/21 11:11:11;;;;;;;;;;;;;;;20.74;34.18;99840.91;4415107;32;19970;-57
2021/04/21 11:13:37;;;;;;;;;;;;;;;20.78;34.14;99839.16;4415684;32;20007;-56
2021/04/21 11:16:05;;;;;;;;;;;;;;;20.80;34.28;99842.69;4417784;32;19954;-55
2021/04/21 11:18:31;;;;;;;;;;;;;;;20.79;34.29;99832.97;4418203;32;20346;-57
2021/04/21 11:20:57;;;;;;;;;;;;;;;20.87;34.20;99830.38;4419283;32;19961;-56
2021/04/21 11:23:22;;;;;;;;;;;;;;;20.87;34.16;99830.38;4419889;32;20441;-54
2021/04/21 11:25:49;;;;;;;;;;;;;;;20.85;34.22;99824.19;4420180;32;19942;-56
2021/04/21 11:28:14;;;;;;;;;;;;;;;20.86;34.13;99826.81;4417042;32;19997;-56
2021/04/21 11:30:42;;;;;;;;;;;;;;;20.85;34.29;99830.34;4419845;32;19960;-57
2021/04/21 11:33:08;;;;;;;;;;;;;;;20.86;34.16;99825.97;4419971;32;19969;-56
2021/04/21 11:35:35;;;;;;;;;;;;;;;20.85;34.18;99824.19;4420209;32;20272;-54
2021/04/21 11:38:01;;;;;;;;;;;;;;;20.91;34.13;99817.16;4417659;32;19954;-57
2021/04/21 11:40:27;;;;;;;;;;;;;;;20.89;34.11;99821.56;4417645;32;19973;-56
2021/04/21 11:42:53;;;;;;;;;;;;;;;20.87;34.16;99814.50;4417751;32;19983;-57
2021/04/21 11:45:19;;;;;;;;;;;;;;;20.85;34.24;99818.91;4417654;32;19938;-56
2021/04/21 11:47:45;;;;;;;;;;;;;;;20.91;34.13;99813.59;4415821;32;19989;-54
2021/04/21 11:50:11;;;;;;;;;;;;;;;20.87;34.29;99815.38;4419174;32;19939;-58
2021/04/21 11:52:37;;;;;;;;;;;;;;;20.87;34.16;99818.03;4418754;32;19956;-57
2021/04/21 11:55:03;;;;;;;;;;;;;;;20.83;34.34;99821.53;4419365;32;20349;-56
2021/04/21 11:57:29;;;;;;;;;;;;;;;20.88;34.27;99814.50;4418382;32;19950;-57
2021/04/21 11:59:55;;;;;;;;;;;;;;;20.90;34.11;99817.13;4419898;32;19985;-57
2021/04/21 12:02:20;;;;;;;;;;;;;;;20.91;34.24;99817.16;4419667;32;19938;-58
2021/04/21 12:04:46;;;;;;;;;;;;;;;20.90;34.11;99806.56;4419018;32;20011;-57
2021/04/21 12:07:12;;;;;;;;;;;;;;;20.90;34.18;99811.84;4415866;32;19954;-57
2021/04/21 12:09:38;;;;;;;;;;;;;;;20.86;34.32;99810.09;4416913;32;20335;-55
2021/04/21 12:12:04;;;;;;;;;;;;;;;20.83;34.29;99805.66;4417597;32;19997;-56
2021/04/21 12:14:30;;;;;;;;;;;;;;;20.83;34.27;99799.50;4416694;32;19950;-56
2021/04/21 12:16:56;;;;;;;;;;;;;;;20.93;33.98;99796.00;4417552;32;19973;-56
2021/04/21 12:19:27;;;;;;;;;;;;;;;20.96;33.94;99790.69;4418194;32;19981;-56
2021/04/21 12:21:54;;;;;;;;;;;;;;;20.96;33.88;99790.69;4418749;32;19972;-55
2021/04/21 12:24:20;;;;;;;;;;;;;;;20.96;34.13;99797.72;4410270;32;19973;-55
2021/04/21 12:26:46;;;;;;;;;;;;;;;21.10;34.01;99792.44;4415726;32;19983;-54
2021/04/21 12:29:14;;;;;;;;;;;;;;;21.05;33.96;99785.41;4415158;32;19968;-58
2021/04/21 12:31:40;;;;;;;;;;;;;;;20.98;34.17;99794.22;4415931;32;20028;-55
2021/04/21 12:34:06;;;;;;;;;;;;;;;21.11;34.04;99788.91;4415480;32;19973;-54
2021/04/21 12:36:32;;;;;;;;;;;;;;;21.22;33.93;99787.16;4418227;32;19958;-55
2021/04/21 12:38:58;;;;;;;;;;;;;;;21.28;33.79;99787.13;4416572;32;19958;-56
2021/04/21 12:41:24;;;;;;;;;;;;;;;21.32;33.71;99778.31;4404542;32;20357;-56